sensor_id;sensor_type;location;lat;lon;timestamp;P1;durP1;ratioP1;P2;durP2;ratioP2
76566;SDS011;65428;53.194;6.132;2023-04-03T00:01:06;9.98;;;4.35;;
76566;SDS011;65428;53.194;6.132;2023-04-03T00:03:34;6.55;;;2.83;;
76566;SDS011;65428;53.194;6.132;2023-04-03T00:06:03;3.87;;;1.80;;
76566;SDS011;65428;53.194;6.132;2023-04-03T00:08:30;3.50;;;1.20;;
76566;SDS011;65428;53.194;6.132;2023-04-03T00:10:57;3.83;;;1.20;;
76566;SDS011;65428;53.194;6.132;2023-04-03T00:13:23;3.30;;;1.27;;
76566;SDS011;65428;53.194;6.132;2023-04-03T00:15:50;3.38;;;1.45;;
76566;SDS011;65428;53.194;6.132;2023-04-03T00:18:16;4.30;;;1.70;;
76566;SDS011;65428;53.194;6.132;2023-04-03T00:20:43;5.55;;;1.60;;
76566;SDS011;65428;53.194;6.132;2023-04-03T00:23:09;3.58;;;1.60;;
76566;SDS011;65428;53.194;6.132;2023-04-03T00:25:35;4.78;;;1.67;;
76566;SDS011;65428;53.194;6.132;2023-04-03T00:28:01;4.22;;;1.30;;
76566;SDS011;65428;53.194;6.132;2023-04-03T00:30:28;3.95;;;1.50;;
76566;SDS011;65428;53.194;6.132;2023-04-03T00:32:57;4.33;;;1.47;;
76566;SDS011;65428;53.194;6.132;2023-04-03T00:35:23;5.35;;;1.63;;
76566;SDS011;65428;53.194;6.132;2023-04-03T00:38:02;4.20;;;1.48;;
76566;SDS011;65428;53.194;6.132;2023-04-03T00:40:33;3.42;;;1.42;;
76566;SDS011;65428;53.194;6.132;2023-04-03T00:43:01;3.42;;;1.30;;
76566;SDS011;65428;53.194;6.132;2023-04-03T00:45:35;3.70;;;1.45;;
76566;SDS011;65428;53.194;6.132;2023-04-03T00:48:05;4.00;;;1.20;;
76566;SDS011;65428;53.194;6.132;2023-04-03T00:50:35;3.83;;;1.20;;
76566;SDS011;65428;53.194;6.132;2023-04-03T00:53:08;4.83;;;1.10;;
76566;SDS011;65428;53.194;6.132;2023-04-03T00:55:41;4.60;;;1.20;;
76566;SDS011;65428;53.194;6.132;2023-04-03T00:58:08;2.83;;;0.80;;
76566;SDS011;65428;53.194;6.132;2023-04-03T01:00:35;3.70;;;1.10;;
76566;SDS011;65428;53.194;6.132;2023-04-03T01:03:08;2.97;;;0.70;;
76566;SDS011;65428;53.194;6.132;2023-04-03T01:05:34;2.60;;;0.90;;
76566;SDS011;65428;53.194;6.132;2023-04-03T01:08:04;3.10;;;0.70;;
76566;SDS011;65428;53.194;6.132;2023-04-03T01:10:36;2.92;;;0.50;;
76566;SDS011;65428;53.194;6.132;2023-04-03T01:13:20;2.13;;;0.50;;
76566;SDS011;65428;53.194;6.132;2023-04-03T01:15:53;2.03;;;0.60;;
76566;SDS011;65428;53.194;6.132;2023-04-03T01:18:20;3.03;;;0.60;;
76566;SDS011;65428;53.194;6.132;2023-04-03T01:20:57;2.53;;;0.40;;
76566;SDS011;65428;53.194;6.132;2023-04-03T01:23:44;3.83;;;0.60;;
76566;SDS011;65428;53.194;6.132;2023-04-03T01:26:18;2.37;;;0.60;;
76566;SDS011;65428;53.194;6.132;2023-04-03T01:28:43;3.40;;;0.40;;
76566;SDS011;65428;53.194;6.132;2023-04-03T01:31:20;2.57;;;0.50;;
76566;SDS011;65428;53.194;6.132;2023-04-03T01:33:53;2.25;;;0.45;;
76566;SDS011;65428;53.194;6.132;2023-04-03T01:36:27;1.88;;;0.50;;
76566;SDS011;65428;53.194;6.132;2023-04-03T01:38:55;2.97;;;0.50;;
76566;SDS011;65428;53.194;6.132;2023-04-03T01:41:25;3.35;;;0.57;;
76566;SDS011;65428;53.194;6.132;2023-04-03T01:43:59;3.00;;;0.60;;
76566;SDS011;65428;53.194;6.132;2023-04-03T01:46:42;3.25;;;0.50;;
76566;SDS011;65428;53.194;6.132;2023-04-03T01:49:13;2.28;;;0.50;;
76566;SDS011;65428;53.194;6.132;2023-04-03T01:51:41;2.38;;;0.40;;
76566;SDS011;65428;53.194;6.132;2023-04-03T01:54:20;2.35;;;0.55;;
76566;SDS011;65428;53.194;6.132;2023-04-03T01:56:46;2.75;;;0.50;;
76566;SDS011;65428;53.194;6.132;2023-04-03T01:59:12;2.95;;;0.70;;
76566;SDS011;65428;53.194;6.132;2023-04-03T02:01:38;5.85;;;0.82;;
76566;SDS011;65428;53.194;6.132;2023-04-03T02:04:04;3.13;;;0.70;;
76566;SDS011;65428;53.194;6.132;2023-04-03T02:06:30;3.00;;;0.70;;
76566;SDS011;65428;53.194;6.132;2023-04-03T02:08:56;2.75;;;0.57;;
76566;SDS011;65428;53.194;6.132;2023-04-03T02:11:25;2.65;;;0.68;;
76566;SDS011;65428;53.194;6.132;2023-04-03T02:13:55;2.73;;;0.60;;
76566;SDS011;65428;53.194;6.132;2023-04-03T02:16:23;3.60;;;0.50;;
76566;SDS011;65428;53.194;6.132;2023-04-03T02:18:49;3.40;;;0.60;;
76566;SDS011;65428;53.194;6.132;2023-04-03T02:21:15;3.67;;;0.80;;
76566;SDS011;65428;53.194;6.132;2023-04-03T02:23:41;1.60;;;0.50;;
76566;SDS011;65428;53.194;6.132;2023-04-03T02:26:08;3.45;;;0.57;;
76566;SDS011;65428;53.194;6.132;2023-04-03T02:28:37;2.28;;;0.47;;
76566;SDS011;65428;53.194;6.132;2023-04-03T02:31:06;2.72;;;0.60;;
76566;SDS011;65428;53.194;6.132;2023-04-03T02:33:33;3.50;;;0.53;;
76566;SDS011;65428;53.194;6.132;2023-04-03T02:36:01;3.15;;;0.68;;
76566;SDS011;65428;53.194;6.132;2023-04-03T02:38:42;2.50;;;0.80;;
76566;SDS011;65428;53.194;6.132;2023-04-03T02:41:15;2.60;;;0.47;;
76566;SDS011;65428;53.194;6.132;2023-04-03T02:43:41;3.10;;;0.52;;
76566;SDS011;65428;53.194;6.132;2023-04-03T02:46:18;2.63;;;0.80;;
76566;SDS011;65428;53.194;6.132;2023-04-03T02:48:52;3.28;;;0.52;;
76566;SDS011;65428;53.194;6.132;2023-04-03T02:51:20;2.73;;;0.60;;
76566;SDS011;65428;53.194;6.132;2023-04-03T02:53:49;2.65;;;0.70;;
76566;SDS011;65428;53.194;6.132;2023-04-03T02:56:21;2.92;;;0.50;;
76566;SDS011;65428;53.194;6.132;2023-04-03T02:58:47;3.47;;;0.60;;
76566;SDS011;65428;53.194;6.132;2023-04-03T03:01:13;4.60;;;0.80;;
76566;SDS011;65428;53.194;6.132;2023-04-03T03:03:39;3.47;;;1.23;;
76566;SDS011;65428;53.194;6.132;2023-04-03T03:06:05;4.18;;;1.10;;
76566;SDS011;65428;53.194;6.132;2023-04-03T03:08:34;3.33;;;0.73;;
76566;SDS011;65428;53.194;6.132;2023-04-03T03:11:01;1.85;;;0.60;;
76566;SDS011;65428;53.194;6.132;2023-04-03T03:13:28;4.05;;;0.80;;
76566;SDS011;65428;53.194;6.132;2023-04-03T03:16:02;2.83;;;0.90;;
76566;SDS011;65428;53.194;6.132;2023-04-03T03:18:30;3.78;;;0.73;;
76566;SDS011;65428;53.194;6.132;2023-04-03T03:20:57;4.28;;;0.90;;
76566;SDS011;65428;53.194;6.132;2023-04-03T03:23:24;3.05;;;0.65;;
76566;SDS011;65428;53.194;6.132;2023-04-03T03:25:56;3.33;;;0.70;;
76566;SDS011;65428;53.194;6.132;2023-04-03T03:28:23;3.35;;;0.90;;
76566;SDS011;65428;53.194;6.132;2023-04-03T03:30:49;4.82;;;1.00;;
76566;SDS011;65428;53.194;6.132;2023-04-03T03:33:21;3.97;;;0.98;;
76566;SDS011;65428;53.194;6.132;2023-04-03T03:35:46;5.33;;;1.20;;
76566;SDS011;65428;53.194;6.132;2023-04-03T03:38:12;5.30;;;1.17;;
76566;SDS011;65428;53.194;6.132;2023-04-03T03:40:38;2.85;;;0.70;;
76566;SDS011;65428;53.194;6.132;2023-04-03T03:43:07;2.87;;;0.63;;
76566;SDS011;65428;53.194;6.132;2023-04-03T03:45:35;7.28;;;1.88;;
76566;SDS011;65428;53.194;6.132;2023-04-03T03:48:03;23.00;;;9.17;;
76566;SDS011;65428;53.194;6.132;2023-04-03T03:50:29;20.75;;;8.90;;
76566;SDS011;65428;53.194;6.132;2023-04-03T03:52:55;19.67;;;8.95;;
76566;SDS011;65428;53.194;6.132;2023-04-03T03:55:21;7.60;;;1.83;;
76566;SDS011;65428;53.194;6.132;2023-04-03T03:57:47;4.85;;;1.45;;
76566;SDS011;65428;53.194;6.132;2023-04-03T04:00:12;6.50;;;1.23;;
76566;SDS011;65428;53.194;6.132;2023-04-03T04:02:42;4.70;;;1.08;;
76566;SDS011;65428;53.194;6.132;2023-04-03T04:05:08;4.65;;;1.20;;
76566;SDS011;65428;53.194;6.132;2023-04-03T04:07:34;5.85;;;1.10;;
76566;SDS011;65428;53.194;6.132;2023-04-03T04:10:03;4.38;;;1.00;;
76566;SDS011;65428;53.194;6.132;2023-04-03T04:12:30;3.90;;;0.80;;
76566;SDS011;65428;53.194;6.132;2023-04-03T04:14:58;3.72;;;1.02;;
76566;SDS011;65428;53.194;6.132;2023-04-03T04:17:31;7.50;;;2.80;;
76566;SDS011;65428;53.194;6.132;2023-04-03T04:20:29;4.70;;;1.23;;
76566;SDS011;65428;53.194;6.132;2023-04-03T04:22:55;4.03;;;1.13;;
76566;SDS011;65428;53.194;6.132;2023-04-03T04:25:21;4.40;;;1.20;;
76566;SDS011;65428;53.194;6.132;2023-04-03T04:27:47;5.90;;;1.30;;
76566;SDS011;65428;53.194;6.132;2023-04-03T04:30:13;3.97;;;1.07;;
76566;SDS011;65428;53.194;6.132;2023-04-03T04:32:38;4.45;;;1.02;;
76566;SDS011;65428;53.194;6.132;2023-04-03T04:35:04;8.67;;;1.53;;
76566;SDS011;65428;53.194;6.132;2023-04-03T04:37:30;4.13;;;1.10;;
76566;SDS011;65428;53.194;6.132;2023-04-03T04:39:56;5.28;;;1.20;;
76566;SDS011;65428;53.194;6.132;2023-04-03T04:42:22;6.20;;;1.50;;
76566;SDS011;65428;53.194;6.132;2023-04-03T04:44:47;4.80;;;1.33;;
76566;SDS011;65428;53.194;6.132;2023-04-03T04:47:18;5.80;;;2.00;;
76566;SDS011;65428;53.194;6.132;2023-04-03T04:49:44;7.40;;;1.90;;
76566;SDS011;65428;53.194;6.132;2023-04-03T04:52:10;5.77;;;1.30;;
76566;SDS011;65428;53.194;6.132;2023-04-03T04:54:36;4.32;;;1.30;;
76566;SDS011;65428;53.194;6.132;2023-04-03T04:57:01;5.17;;;1.10;;
76566;SDS011;65428;53.194;6.132;2023-04-03T04:59:27;5.10;;;1.40;;
76566;SDS011;65428;53.194;6.132;2023-04-03T05:01:53;5.65;;;1.30;;
76566;SDS011;65428;53.194;6.132;2023-04-03T05:04:18;6.88;;;1.80;;
76566;SDS011;65428;53.194;6.132;2023-04-03T05:06:44;7.30;;;1.80;;
76566;SDS011;65428;53.194;6.132;2023-04-03T05:09:10;5.53;;;1.70;;
76566;SDS011;65428;53.194;6.132;2023-04-03T05:11:36;7.00;;;1.70;;
76566;SDS011;65428;53.194;6.132;2023-04-03T05:14:01;5.85;;;1.67;;
76566;SDS011;65428;53.194;6.132;2023-04-03T05:16:30;6.53;;;1.70;;
76566;SDS011;65428;53.194;6.132;2023-04-03T05:18:55;5.93;;;1.73;;
76566;SDS011;65428;53.194;6.132;2023-04-03T05:21:21;6.97;;;1.80;;
76566;SDS011;65428;53.194;6.132;2023-04-03T05:23:49;5.97;;;1.60;;
76566;SDS011;65428;53.194;6.132;2023-04-03T05:26:15;6.07;;;1.77;;
76566;SDS011;65428;53.194;6.132;2023-04-03T05:28:41;7.47;;;1.63;;
76566;SDS011;65428;53.194;6.132;2023-04-03T05:31:07;6.25;;;1.70;;
76566;SDS011;65428;53.194;6.132;2023-04-03T05:33:32;6.45;;;1.92;;
76566;SDS011;65428;53.194;6.132;2023-04-03T05:36:02;5.88;;;1.60;;
76566;SDS011;65428;53.194;6.132;2023-04-03T05:38:31;6.20;;;1.63;;
76566;SDS011;65428;53.194;6.132;2023-04-03T05:40:57;6.93;;;1.95;;
76566;SDS011;65428;53.194;6.132;2023-04-03T05:43:23;9.73;;;2.00;;
76566;SDS011;65428;53.194;6.132;2023-04-03T05:45:48;6.82;;;2.25;;
76566;SDS011;65428;53.194;6.132;2023-04-03T05:48:14;6.78;;;2.15;;
76566;SDS011;65428;53.194;6.132;2023-04-03T05:50:40;4.75;;;1.60;;
76566;SDS011;65428;53.194;6.132;2023-04-03T05:53:07;6.80;;;2.20;;
76566;SDS011;65428;53.194;6.132;2023-04-03T05:55:42;6.95;;;2.00;;
76566;SDS011;65428;53.194;6.132;2023-04-03T05:58:08;7.88;;;2.38;;
76566;SDS011;65428;53.194;6.132;2023-04-03T06:00:34;7.25;;;2.10;;
76566;SDS011;65428;53.194;6.132;2023-04-03T06:02:59;6.10;;;2.27;;
76566;SDS011;65428;53.194;6.132;2023-04-03T06:05:25;7.47;;;2.17;;
76566;SDS011;65428;53.194;6.132;2023-04-03T06:07:51;6.53;;;2.15;;
76566;SDS011;65428;53.194;6.132;2023-04-03T06:10:16;5.72;;;2.03;;
76566;SDS011;65428;53.194;6.132;2023-04-03T06:12:42;6.28;;;2.00;;
76566;SDS011;65428;53.194;6.132;2023-04-03T06:15:08;5.40;;;1.90;;
76566;SDS011;65428;53.194;6.132;2023-04-03T06:17:35;8.00;;;2.30;;
76566;SDS011;65428;53.194;6.132;2023-04-03T06:20:02;5.88;;;1.98;;
76566;SDS011;65428;53.194;6.132;2023-04-03T06:22:29;6.45;;;1.95;;
76566;SDS011;65428;53.194;6.132;2023-04-03T06:24:55;8.25;;;2.40;;
76566;SDS011;65428;53.194;6.132;2023-04-03T06:27:21;9.43;;;2.38;;
76566;SDS011;65428;53.194;6.132;2023-04-03T06:29:47;5.95;;;2.22;;
76566;SDS011;65428;53.194;6.132;2023-04-03T06:32:14;9.10;;;2.50;;
76566;SDS011;65428;53.194;6.132;2023-04-03T06:34:40;6.05;;;2.20;;
76566;SDS011;65428;53.194;6.132;2023-04-03T06:37:10;8.43;;;2.63;;
76566;SDS011;65428;53.194;6.132;2023-04-03T06:39:40;9.43;;;2.53;;
76566;SDS011;65428;53.194;6.132;2023-04-03T06:42:06;6.32;;;2.50;;
76566;SDS011;65428;53.194;6.132;2023-04-03T06:44:32;6.82;;;2.75;;
76566;SDS011;65428;53.194;6.132;2023-04-03T06:46:59;6.45;;;2.35;;
76566;SDS011;65428;53.194;6.132;2023-04-03T06:49:25;7.72;;;2.80;;
76566;SDS011;65428;53.194;6.132;2023-04-03T06:51:51;9.07;;;3.00;;
76566;SDS011;65428;53.194;6.132;2023-04-03T06:54:17;7.25;;;3.10;;
76566;SDS011;65428;53.194;6.132;2023-04-03T06:56:43;7.32;;;2.53;;
76566;SDS011;65428;53.194;6.132;2023-04-03T06:59:09;8.20;;;2.80;;
76566;SDS011;65428;53.194;6.132;2023-04-03T07:01:39;8.38;;;2.70;;
76566;SDS011;65428;53.194;6.132;2023-04-03T07:04:05;7.38;;;2.85;;
76566;SDS011;65428;53.194;6.132;2023-04-03T07:06:31;7.13;;;2.17;;
76566;SDS011;65428;53.194;6.132;2023-04-03T07:08:58;7.30;;;2.05;;
76566;SDS011;65428;53.194;6.132;2023-04-03T07:11:24;6.45;;;2.50;;
76566;SDS011;65428;53.194;6.132;2023-04-03T07:13:51;7.97;;;2.58;;
76566;SDS011;65428;53.194;6.132;2023-04-03T07:16:17;6.38;;;2.47;;
76566;SDS011;65428;53.194;6.132;2023-04-03T07:18:43;8.00;;;2.10;;
76566;SDS011;65428;53.194;6.132;2023-04-03T07:21:12;5.40;;;2.20;;
76566;SDS011;65428;53.194;6.132;2023-04-03T07:23:38;5.88;;;2.00;;
76566;SDS011;65428;53.194;6.132;2023-04-03T07:26:14;6.75;;;1.88;;
76566;SDS011;65428;53.194;6.132;2023-04-03T07:28:40;5.55;;;1.33;;
76566;SDS011;65428;53.194;6.132;2023-04-03T07:31:07;6.45;;;1.75;;
76566;SDS011;65428;53.194;6.132;2023-04-03T07:33:37;6.63;;;1.70;;
76566;SDS011;65428;53.194;6.132;2023-04-03T07:36:03;5.72;;;1.50;;
76566;SDS011;65428;53.194;6.132;2023-04-03T07:38:29;4.90;;;1.42;;
76566;SDS011;65428;53.194;6.132;2023-04-03T07:40:55;5.33;;;1.43;;
76566;SDS011;65428;53.194;6.132;2023-04-03T07:43:21;4.80;;;1.07;;
76566;SDS011;65428;53.194;6.132;2023-04-03T07:45:52;5.60;;;1.17;;
76566;SDS011;65428;53.194;6.132;2023-04-03T07:48:22;5.63;;;1.00;;
76566;SDS011;65428;53.194;6.132;2023-04-03T07:50:58;5.30;;;1.25;;
76566;SDS011;65428;53.194;6.132;2023-04-03T07:53:25;4.47;;;1.08;;
76566;SDS011;65428;53.194;6.132;2023-04-03T07:55:51;4.07;;;1.13;;
76566;SDS011;65428;53.194;6.132;2023-04-03T07:58:36;5.82;;;1.20;;
76566;SDS011;65428;53.194;6.132;2023-04-03T08:01:02;4.15;;;0.95;;
76566;SDS011;65428;53.194;6.132;2023-04-03T08:03:34;4.88;;;1.10;;
76566;SDS011;65428;53.194;6.132;2023-04-03T08:06:01;4.05;;;1.10;;
76566;SDS011;65428;53.194;6.132;2023-04-03T08:08:34;4.78;;;1.00;;
76566;SDS011;65428;53.194;6.132;2023-04-03T08:11:34;5.38;;;0.80;;
76566;SDS011;65428;53.194;6.132;2023-04-03T08:13:56;5.10;;;0.80;;
76566;SDS011;65428;53.194;6.132;2023-04-03T08:16:39;4.13;;;0.73;;
76566;SDS011;65428;53.194;6.132;2023-04-03T08:19:21;5.10;;;0.82;;
76566;SDS011;65428;53.194;6.132;2023-04-03T08:21:46;5.43;;;0.90;;
76566;SDS011;65428;53.194;6.132;2023-04-03T08:24:25;4.38;;;0.80;;
76566;SDS011;65428;53.194;6.132;2023-04-03T08:26:51;5.07;;;0.80;;
76566;SDS011;65428;53.194;6.132;2023-04-03T08:32:37;4.97;;;1.00;;
76566;SDS011;65428;53.194;6.132;2023-04-03T08:35:15;7.07;;;1.05;;
76566;SDS011;65428;53.194;6.132;2023-04-03T08:37:53;4.63;;;0.88;;
76566;SDS011;65428;53.194;6.132;2023-04-03T08:40:22;3.38;;;0.60;;
76566;SDS011;65428;53.194;6.132;2023-04-03T08:46:18;3.57;;;0.70;;
76566;SDS011;65428;53.194;6.132;2023-04-03T08:56:35;3.20;;;0.40;;
76566;SDS011;65428;53.194;6.132;2023-04-03T08:59:10;4.88;;;0.90;;
76566;SDS011;65428;53.194;6.132;2023-04-03T09:01:50;2.50;;;0.40;;
76566;SDS011;65428;53.194;6.132;2023-04-03T09:04:27;2.92;;;0.38;;
76566;SDS011;65428;53.194;6.132;2023-04-03T09:07:02;2.00;;;0.40;;
76566;SDS011;65428;53.194;6.132;2023-04-03T09:10:45;1.80;;;0.30;;
76566;SDS011;65428;53.194;6.132;2023-04-03T09:26:30;2.73;;;0.40;;
76566;SDS011;65428;53.194;6.132;2023-04-03T09:29:22;2.50;;;0.38;;
76566;SDS011;65428;53.194;6.132;2023-04-03T09:32:00;1.70;;;0.38;;
76566;SDS011;65428;53.194;6.132;2023-04-03T09:34:40;3.10;;;0.40;;
76566;SDS011;65428;53.194;6.132;2023-04-03T09:37:10;3.67;;;0.50;;
76566;SDS011;65428;53.194;6.132;2023-04-03T09:40:27;2.08;;;0.50;;
76566;SDS011;65428;53.194;6.132;2023-04-03T09:45:56;2.22;;;0.32;;
76566;SDS011;65428;53.194;6.132;2023-04-03T09:51:31;1.92;;;0.30;;
76566;SDS011;65428;53.194;6.132;2023-04-03T09:54:24;3.40;;;0.30;;
76566;SDS011;65428;53.194;6.132;2023-04-03T09:57:04;1.65;;;0.30;;
76566;SDS011;65428;53.194;6.132;2023-04-03T09:59:32;1.27;;;0.20;;
76566;SDS011;65428;53.194;6.132;2023-04-03T10:02:02;1.45;;;0.20;;
76566;SDS011;65428;53.194;6.132;2023-04-03T10:04:56;2.03;;;0.20;;
76566;SDS011;65428;53.194;6.132;2023-04-03T10:07:40;1.92;;;0.40;;
76566;SDS011;65428;53.194;6.132;2023-04-03T10:10:18;1.63;;;0.28;;
76566;SDS011;65428;53.194;6.132;2023-04-03T10:13:07;1.70;;;0.22;;
76566;SDS011;65428;53.194;6.132;2023-04-03T10:15:39;1.80;;;0.30;;
76566;SDS011;65428;53.194;6.132;2023-04-03T10:18:28;3.92;;;0.30;;
76566;SDS011;65428;53.194;6.132;2023-04-03T10:24:14;1.20;;;0.20;;
76566;SDS011;65428;53.194;6.132;2023-04-03T10:40:01;2.08;;;0.30;;
76566;SDS011;65428;53.194;6.132;2023-04-03T10:43:25;1.98;;;0.30;;
76566;SDS011;65428;53.194;6.132;2023-04-03T10:46:16;1.65;;;0.30;;
76566;SDS011;65428;53.194;6.132;2023-04-03T10:51:58;1.17;;;0.20;;
76566;SDS011;65428;53.194;6.132;2023-04-03T10:54:27;1.83;;;0.20;;
76566;SDS011;65428;53.194;6.132;2023-04-03T10:57:03;0.88;;;0.20;;
76566;SDS011;65428;53.194;6.132;2023-04-03T11:02:31;1.48;;;0.30;;
76566;SDS011;65428;53.194;6.132;2023-04-03T11:08:42;1.65;;;0.30;;
76566;SDS011;65428;53.194;6.132;2023-04-03T11:11:54;1.90;;;0.30;;
76566;SDS011;65428;53.194;6.132;2023-04-03T11:25:13;2.70;;;0.30;;
76566;SDS011;65428;53.194;6.132;2023-04-03T11:28:04;0.95;;;0.20;;
76566;SDS011;65428;53.194;6.132;2023-04-03T11:30:52;1.20;;;0.20;;
76566;SDS011;65428;53.194;6.132;2023-04-03T11:33:55;1.30;;;0.20;;
76566;SDS011;65428;53.194;6.132;2023-04-03T11:36:30;0.90;;;0.20;;
76566;SDS011;65428;53.194;6.132;2023-04-03T11:51:37;1.17;;;0.20;;
76566;SDS011;65428;53.194;6.132;2023-04-03T11:57:43;1.70;;;0.30;;
76566;SDS011;65428;53.194;6.132;2023-04-03T12:12:59;0.80;;;0.30;;
76566;SDS011;65428;53.194;6.132;2023-04-03T12:15:49;1.63;;;0.20;;
76566;SDS011;65428;53.194;6.132;2023-04-03T12:29:29;1.98;;;0.30;;
76566;SDS011;65428;53.194;6.132;2023-04-03T12:46:54;1.45;;;0.30;;
76566;SDS011;65428;53.194;6.132;2023-04-03T12:49:43;1.65;;;0.30;;
76566;SDS011;65428;53.194;6.132;2023-04-03T12:52:43;2.45;;;0.30;;
76566;SDS011;65428;53.194;6.132;2023-04-03T12:55:16;1.63;;;0.40;;
76566;SDS011;65428;53.194;6.132;2023-04-03T12:57:44;1.95;;;0.30;;
76566;SDS011;65428;53.194;6.132;2023-04-03T13:03:25;1.98;;;0.40;;
76566;SDS011;65428;53.194;6.132;2023-04-03T13:08:54;1.55;;;0.30;;
76566;SDS011;65428;53.194;6.132;2023-04-03T13:11:37;2.30;;;0.33;;
76566;SDS011;65428;53.194;6.132;2023-04-03T13:14:15;1.63;;;0.30;;
76566;SDS011;65428;53.194;6.132;2023-04-03T13:17:05;1.73;;;0.30;;
76566;SDS011;65428;53.194;6.132;2023-04-03T13:19:44;1.83;;;0.30;;
76566;SDS011;65428;53.194;6.132;2023-04-03T13:25:15;2.15;;;0.30;;
76566;SDS011;65428;53.194;6.132;2023-04-03T13:27:57;1.33;;;0.30;;
76566;SDS011;65428;53.194;6.132;2023-04-03T13:30:36;1.35;;;0.30;;
76566;SDS011;65428;53.194;6.132;2023-04-03T13:33:17;1.58;;;0.40;;
76566;SDS011;65428;53.194;6.132;2023-04-03T13:36:19;1.23;;;0.30;;
76566;SDS011;65428;53.194;6.132;2023-04-03T13:39:04;1.58;;;0.30;;
76566;SDS011;65428;53.194;6.132;2023-04-03T13:41:33;2.38;;;0.30;;
76566;SDS011;65428;53.194;6.132;2023-04-03T13:47:14;1.40;;;0.30;;
76566;SDS011;65428;53.194;6.132;2023-04-03T13:49:45;1.87;;;0.30;;
76566;SDS011;65428;53.194;6.132;2023-04-03T13:52:42;1.20;;;0.20;;
76566;SDS011;65428;53.194;6.132;2023-04-03T13:57:54;1.63;;;0.20;;
76566;SDS011;65428;53.194;6.132;2023-04-03T14:06:23;2.00;;;0.30;;
76566;SDS011;65428;53.194;6.132;2023-04-03T14:08:49;1.33;;;0.20;;
76566;SDS011;65428;53.194;6.132;2023-04-03T14:11:20;1.45;;;0.35;;
76566;SDS011;65428;53.194;6.132;2023-04-03T14:14:00;1.30;;;0.30;;
76566;SDS011;65428;53.194;6.132;2023-04-03T14:16:31;1.75;;;0.30;;
76566;SDS011;65428;53.194;6.132;2023-04-03T14:19:14;1.30;;;0.30;;
76566;SDS011;65428;53.194;6.132;2023-04-03T14:21:47;1.48;;;0.40;;
76566;SDS011;65428;53.194;6.132;2023-04-03T14:24:15;1.67;;;0.30;;
76566;SDS011;65428;53.194;6.132;2023-04-03T14:26:41;1.45;;;0.30;;
76566;SDS011;65428;53.194;6.132;2023-04-03T14:29:09;1.60;;;0.30;;
76566;SDS011;65428;53.194;6.132;2023-04-03T14:31:36;1.60;;;0.30;;
76566;SDS011;65428;53.194;6.132;2023-04-03T14:34:06;1.40;;;0.30;;
76566;SDS011;65428;53.194;6.132;2023-04-03T14:36:36;1.50;;;0.30;;
76566;SDS011;65428;53.194;6.132;2023-04-03T14:42:01;2.03;;;0.40;;
76566;SDS011;65428;53.194;6.132;2023-04-03T14:44:27;2.30;;;0.30;;
76566;SDS011;65428;53.194;6.132;2023-04-03T14:46:53;2.22;;;0.40;;
76566;SDS011;65428;53.194;6.132;2023-04-03T14:49:26;2.20;;;0.40;;
76566;SDS011;65428;53.194;6.132;2023-04-03T14:52:04;2.83;;;0.40;;
76566;SDS011;65428;53.194;6.132;2023-04-03T14:54:32;2.03;;;0.40;;
76566;SDS011;65428;53.194;6.132;2023-04-03T14:57:01;1.67;;;0.40;;
76566;SDS011;65428;53.194;6.132;2023-04-03T15:02:36;1.63;;;0.38;;
76566;SDS011;65428;53.194;6.132;2023-04-03T15:05:07;1.57;;;0.30;;
76566;SDS011;65428;53.194;6.132;2023-04-03T15:07:38;2.38;;;0.40;;
76566;SDS011;65428;53.194;6.132;2023-04-03T15:10:36;2.00;;;0.40;;
76566;SDS011;65428;53.194;6.132;2023-04-03T15:13:02;2.70;;;0.30;;
76566;SDS011;65428;53.194;6.132;2023-04-03T15:15:34;1.90;;;0.40;;
76566;SDS011;65428;53.194;6.132;2023-04-03T15:18:01;2.22;;;0.40;;
76566;SDS011;65428;53.194;6.132;2023-04-03T15:20:36;2.03;;;0.40;;
76566;SDS011;65428;53.194;6.132;2023-04-03T15:23:05;2.53;;;0.40;;
76566;SDS011;65428;53.194;6.132;2023-04-03T15:25:40;2.28;;;0.30;;
76566;SDS011;65428;53.194;6.132;2023-04-03T15:28:06;1.75;;;0.30;;
76566;SDS011;65428;53.194;6.132;2023-04-03T15:31:02;1.67;;;0.40;;
76566;SDS011;65428;53.194;6.132;2023-04-03T15:33:46;1.52;;;0.30;;
76566;SDS011;65428;53.194;6.132;2023-04-03T15:36:32;1.70;;;0.30;;
76566;SDS011;65428;53.194;6.132;2023-04-03T15:38:59;2.38;;;0.40;;
76566;SDS011;65428;53.194;6.132;2023-04-03T15:41:28;2.38;;;0.30;;
76566;SDS011;65428;53.194;6.132;2023-04-03T15:43:57;2.10;;;0.30;;
76566;SDS011;65428;53.194;6.132;2023-04-03T15:46:25;2.30;;;0.20;;
76566;SDS011;65428;53.194;6.132;2023-04-03T15:48:51;2.25;;;0.30;;
76566;SDS011;65428;53.194;6.132;2023-04-03T15:51:17;1.27;;;0.20;;
76566;SDS011;65428;53.194;6.132;2023-04-03T15:53:42;2.07;;;0.20;;
76566;SDS011;65428;53.194;6.132;2023-04-03T15:56:08;2.00;;;0.40;;
76566;SDS011;65428;53.194;6.132;2023-04-03T15:58:35;1.92;;;0.20;;
76566;SDS011;65428;53.194;6.132;2023-04-03T16:01:00;2.13;;;0.20;;
76566;SDS011;65428;53.194;6.132;2023-04-03T16:03:27;1.65;;;0.25;;
76566;SDS011;65428;53.194;6.132;2023-04-03T16:05:53;2.35;;;0.20;;
76566;SDS011;65428;53.194;6.132;2023-04-03T16:08:19;1.98;;;0.20;;
76566;SDS011;65428;53.194;6.132;2023-04-03T16:11:02;1.40;;;0.20;;
76566;SDS011;65428;53.194;6.132;2023-04-03T16:13:31;1.67;;;0.20;;
76566;SDS011;65428;53.194;6.132;2023-04-03T16:16:00;2.25;;;0.20;;
76566;SDS011;65428;53.194;6.132;2023-04-03T16:18:27;1.60;;;0.20;;
76566;SDS011;65428;53.194;6.132;2023-04-03T16:20:57;1.83;;;0.20;;
76566;SDS011;65428;53.194;6.132;2023-04-03T16:23:27;1.77;;;0.30;;
76566;SDS011;65428;53.194;6.132;2023-04-03T16:25:55;1.77;;;0.20;;
76566;SDS011;65428;53.194;6.132;2023-04-03T16:28:21;1.37;;;0.20;;
76566;SDS011;65428;53.194;6.132;2023-04-03T16:30:46;1.70;;;0.20;;
76566;SDS011;65428;53.194;6.132;2023-04-03T16:33:14;1.43;;;0.20;;
76566;SDS011;65428;53.194;6.132;2023-04-03T16:35:40;1.97;;;0.30;;
76566;SDS011;65428;53.194;6.132;2023-04-03T16:38:07;1.98;;;0.30;;
76566;SDS011;65428;53.194;6.132;2023-04-03T16:40:36;1.90;;;0.30;;
76566;SDS011;65428;53.194;6.132;2023-04-03T16:43:01;1.20;;;0.30;;
76566;SDS011;65428;53.194;6.132;2023-04-03T16:48:16;2.53;;;0.30;;
76566;SDS011;65428;53.194;6.132;2023-04-03T16:50:45;1.47;;;0.30;;
76566;SDS011;65428;53.194;6.132;2023-04-03T16:53:41;2.53;;;0.30;;
76566;SDS011;65428;53.194;6.132;2023-04-03T16:56:11;1.67;;;0.30;;
76566;SDS011;65428;53.194;6.132;2023-04-03T16:59:04;1.80;;;0.30;;
76566;SDS011;65428;53.194;6.132;2023-04-03T17:01:41;2.07;;;0.40;;
76566;SDS011;65428;53.194;6.132;2023-04-03T17:04:07;1.40;;;0.30;;
76566;SDS011;65428;53.194;6.132;2023-04-03T17:06:40;1.80;;;0.40;;
76566;SDS011;65428;53.194;6.132;2023-04-03T17:09:06;2.33;;;0.20;;
76566;SDS011;65428;53.194;6.132;2023-04-03T17:11:32;2.67;;;0.30;;
76566;SDS011;65428;53.194;6.132;2023-04-03T17:14:07;2.53;;;0.30;;
76566;SDS011;65428;53.194;6.132;2023-04-03T17:16:34;2.55;;;0.30;;
76566;SDS011;65428;53.194;6.132;2023-04-03T17:19:12;2.90;;;0.30;;
76566;SDS011;65428;53.194;6.132;2023-04-03T17:21:38;1.40;;;0.30;;
76566;SDS011;65428;53.194;6.132;2023-04-03T17:24:09;2.05;;;0.20;;
76566;SDS011;65428;53.194;6.132;2023-04-03T17:26:45;2.55;;;0.40;;
76566;SDS011;65428;53.194;6.132;2023-04-03T17:29:12;2.80;;;0.30;;
76566;SDS011;65428;53.194;6.132;2023-04-03T17:31:50;2.47;;;0.30;;
76566;SDS011;65428;53.194;6.132;2023-04-03T17:34:16;2.58;;;0.28;;
76566;SDS011;65428;53.194;6.132;2023-04-03T17:36:47;2.53;;;0.30;;
76566;SDS011;65428;53.194;6.132;2023-04-03T17:39:13;2.78;;;0.38;;
76566;SDS011;65428;53.194;6.132;2023-04-03T17:41:39;2.05;;;0.30;;
76566;SDS011;65428;53.194;6.132;2023-04-03T17:44:10;1.65;;;0.30;;
76566;SDS011;65428;53.194;6.132;2023-04-03T17:46:38;5.20;;;2.75;;
76566;SDS011;65428;53.194;6.132;2023-04-03T17:49:04;2.10;;;0.30;;